CST,Max TemperatureF,Mean TemperatureF,Min TemperatureF,Max Dew PointF,MeanDew PointF,Min DewpointF,Max Humidity, Mean Humidity, Min Humidity, Max Sea Level PressureIn, Mean Sea Level PressureIn, Min Sea Level PressureIn, Max VisibilityMiles, Mean VisibilityMiles, Min VisibilityMiles, Max Wind SpeedMPH, Mean Wind SpeedMPH, Max Gust SpeedMPH,PrecipitationIn, CloudCover, Events, WindDirDegrees
2013-11-1,62,50,39,40,38,35,83,69,41,29.98,29.79,29.58,10,10,10,18,9,28,0.05,5,,305
2013-11-2,61,47,34,37,32,28,85,65,30,30.18,30.10,29.99,10,10,10,14,9,22,0.00,1,,276
2013-11-3,60,47,34,36,33,30,85,58,36,30.06,29.88,29.74,10,10,10,25,12,38,0.00,0,,153
2013-11-4,59,44,30,42,34,26,85,66,39,30.17,29.95,29.76,10,10,10,16,8,29,0.00,2,,348
2013-11-5,41,36,30,38,35,26,93,89,82,30.17,30.02,29.89,10,6,2,22,11,31,0.89,7,Rain,1
2013-11-6,44,37,30,32,31,27,89,80,62,30.28,30.19,30.06,10,10,5,17,10,24,0.00,6,Rain,308
2013-11-7,48,38,26,29,25,21,85,75,33,30.36,30.31,30.26,10,10,10,15,4,20,0.00,1,,239
2013-11-8,62,45,28,38,32,25,88,60,35,30.26,29.92,29.72,10,10,10,23,10,33,0.00,0,,187
2013-11-9,60,48,36,34,32,28,73,57,36,30.36,30.13,29.89,10,10,10,15,10,18,0.00,0,,302
2013-11-10,54,40,27,30,28,23,89,64,32,30.43,30.30,30.14,10,10,10,13,6,18,0.00,2,,176
2013-11-11,37,28,18,32,20,8,89,71,51,30.83,30.44,30.11,10,9,2,24,12,31,0.00,4,Snow,354
2013-11-12,33,22,10,13,9,5,81,63,35,30.92,30.79,30.57,10,10,10,10,6,,0.00,0,,218
2013-11-13,55,38,21,28,21,12,72,54,34,30.55,30.24,29.98,10,10,10,24,13,30,0.00,0,,177
2013-11-14,57,42,28,37,30,24,85,70,47,29.98,29.93,29.88,10,10,8,10,7,,0.00,1,,164
2013-11-15,57,41,25,36,31,22,89,74,42,29.89,29.78,29.58,10,10,7,15,7,,0.00,0,,145
2013-11-16,62,48,35,51,40,29,90,73,41,29.57,29.38,29.28,10,9,6,26,11,34,0.00,2,,175
2013-11-17,55,44,33,42,35,28,85,68,47,30.04,29.65,29.36,10,10,9,21,8,,0.03,4,Rain,317
2013-11-18,52,40,27,31,27,23,85,67,40,30.26,30.18,30.05,10,10,7,12,6,,0.00,0,,198
2013-11-19,63,45,27,32,27,22,85,51,26,30.18,29.99,29.85,10,10,10,31,14,39,0.00,2,,158
2013-11-20,55,46,32,35,32,27,92,56,39,29.98,29.83,29.76,10,10,9,21,15,28,0.00,0,,147
2013-11-21,36,28,21,31,20,15,92,71,58,30.61,30.36,30.00,10,8,2,29,20,39,0.00,8,Snow,346
2013-11-22,32,21,10,15,9,4,77,63,37,30.75,30.67,30.62,10,10,10,18,10,,0.00,1,,302
2013-11-23,21,14,8,13,5,1,80,62,40,30.95,30.84,30.71,10,10,10,17,12,,0.00,1,,357
2013-11-24,34,20,7,14,9,1,80,58,40,30.78,30.49,30.22,10,10,9,24,13,30,0.00,2,Snow,178
2013-11-25,46,37,28,27,20,11,72,56,42,30.22,30.16,30.12,10,10,10,20,15,22,0.00,3,,273
2013-11-26,32,24,16,22,13,5,78,58,35,30.47,30.36,30.21,10,10,10,26,15,33,0.00,3,,328
2013-11-27,33,19,5,21,9,0,84,61,38,30.46,30.27,30.04,10,10,10,23,9,,0.00,0,,199
2013-11-28,36,24,12,20,15,6,80,62,43,30.53,30.37,30.07,10,10,10,20,14,26,0.00,1,,334
2013-11-29,45,28,10,25,17,5,84,67,44,30.53,30.34,30.14,10,10,10,20,6,,0.00,0,,158
2013-11-30,59,40,21,30,24,17,85,66,31,30.18,30.12,30.06,10,10,10,12,6,,0.00,0,,300